»·PEaware :: N316AL KLBF-KDEN

N316AL :: KLBF-KDEN

FLIGHT INFORMATION

Flight Status: Arrived
Operator: Privately registered:
United States
More flights under this callsign
Pilot: Justin C. (28189)
Aircraft: Unknown
(EPIC)
More flights by this aircraft type
Origin: KLBF North Platte Regl-Bird
United States
Destination: KDEN Denver Intl
United States
More flights between these airports :: More routes between these airports
Route: +SNY LANDR1
File this flight plan on PilotEdge
Remarks:
Altitude:
(Current/Filed)
17,000ft
Speed:
(Current/Filed)
300kts
Departed: 28-Feb-20 02:04 PM
Arrived: 28-Feb-20 02:57 PM
Distance/Time
Traveled:
197nm/0:53
Distance/Time
To Go:
Arrived

Flight Plot

Page will automatically refresh every two minutes.

Flight plan parsing failed; only flown route is shown


Map Options




Map Legend


Flown Route
Filed Route
Departure Airport
Arrival Airport
Navaid (VOR, NDB)
Fix

Horizontal Profiles

Position Reports

Time Latitude Longitude Heading Altitude Ground
Speed
28-Feb-20 13:45 41.131888 -100.695288 270 2781ft 0kts
28-Feb-20 13:46 41.131888 -100.695288 270 2781ft 0kts
28-Feb-20 13:47 41.131888 -100.695289 270 2781ft 0kts
28-Feb-20 13:48 41.131888 -100.695289 270 2781ft 0kts
28-Feb-20 13:49 41.131888 -100.695289 270 2781ft 0kts
28-Feb-20 13:50 41.131888 -100.695289 270 2781ft 0kts
28-Feb-20 13:51 41.131888 -100.695289 270 2781ft 0kts
28-Feb-20 13:52 41.131888 -100.695289 270 2781ft 0kts
28-Feb-20 13:53 41.131888 -100.695289 270 2781ft 0kts
28-Feb-20 13:54 41.131888 -100.695289 270 2781ft 0kts
28-Feb-20 13:55 41.131540 -100.695800 182 2781ft 0kts
28-Feb-20 13:56 41.131540 -100.695800 182 2781ft 0kts
28-Feb-20 13:57 41.131540 -100.695800 182 2781ft 0kts
28-Feb-20 13:58 41.131540 -100.695800 182 2781ft 0kts
28-Feb-20 13:59 41.131540 -100.695800 182 2781ft 0kts
28-Feb-20 14:00 41.131103 -100.693744 91 2781ft 0kts
28-Feb-20 14:01 41.130205 -100.690148 124 2781ft 19kts
28-Feb-20 14:02 41.126213 -100.682851 125 2781ft 27kts
28-Feb-20 14:03 41.119641 -100.670838 125 2781ft 46kts
28-Feb-20 14:04 41.119750 -100.667361 308 2781ft 17kts
28-Feb-20 14:05 41.131834 -100.700503 278 4305ft 127kts
28-Feb-20 14:06 41.131565 -100.759816 276 6010ft 197kts
28-Feb-20 14:07 41.131049 -100.837496 276 8515ft 209kts
28-Feb-20 14:08 41.130499 -100.911152 276 11516ft 194kts
28-Feb-20 14:09 41.129970 -100.978887 277 14515ft 177kts
28-Feb-20 14:10 41.129509 -101.041115 277 16864ft 188kts
28-Feb-20 14:11 41.128777 -101.126951 274 17011ft 268kts
28-Feb-20 14:12 41.127715 -101.232061 274 17010ft 295kts
28-Feb-20 14:13 41.126526 -101.342787 274 17001ft 303kts
28-Feb-20 14:14 41.125227 -101.453938 274 16999ft 295kts
28-Feb-20 14:15 41.123886 -101.561186 274 16999ft 288kts
28-Feb-20 14:16 41.122456 -101.667497 273 17003ft 286kts
28-Feb-20 14:17 41.120944 -101.772903 273 17003ft 286kts
28-Feb-20 14:18 41.119328 -101.878623 273 17003ft 286kts
28-Feb-20 14:19 41.117615 -101.984492 273 17002ft 286kts
28-Feb-20 14:20 41.115810 -102.089995 273 17002ft 286kts
28-Feb-20 14:21 41.113905 -102.195710 273 17002ft 286kts
28-Feb-20 14:22 41.111909 -102.301135 273 17004ft 286kts
28-Feb-20 14:23 41.109818 -102.406520 273 17008ft 286kts
28-Feb-20 14:24 41.107632 -102.511806 273 17010ft 286kts
28-Feb-20 14:25 41.105347 -102.617233 273 17009ft 286kts
28-Feb-20 14:26 41.102955 -102.723029 273 17013ft 286kts
28-Feb-20 14:27 41.100472 -102.828663 273 17012ft 286kts
28-Feb-20 14:28 41.097889 -102.934446 273 17012ft 286kts
28-Feb-20 14:30 41.064458 -103.028760 232 17013ft 309kts
28-Feb-20 14:31 41.005191 -103.111234 232 17011ft 309kts
28-Feb-20 14:32 40.945587 -103.193243 232 17011ft 310kts
28-Feb-20 14:33 40.886319 -103.275731 232 16999ft 310kts
28-Feb-20 14:34 40.826952 -103.358487 232 16991ft 310kts
28-Feb-20 14:35 40.767652 -103.441234 232 16987ft 310kts
28-Feb-20 14:36 40.708145 -103.523457 232 16992ft 310kts
28-Feb-20 14:37 40.648635 -103.605355 232 16999ft 310kts
28-Feb-20 14:38 40.588868 -103.687580 231 17009ft 310kts
28-Feb-20 14:39 40.528776 -103.769416 231 17009ft 311kts
28-Feb-20 14:40 40.468612 -103.851418 231 17009ft 311kts
28-Feb-20 14:41 40.408586 -103.933310 231 17009ft 311kts
28-Feb-20 14:42 40.348439 -104.015340 231 17010ft 311kts
28-Feb-20 14:43 40.288330 -104.096704 231 17010ft 311kts
28-Feb-20 14:44 40.228006 -104.178216 231 16858ft 311kts
28-Feb-20 14:45 40.175345 -104.263919 261 15352ft 295kts
28-Feb-20 14:46 40.165611 -104.367816 268 13853ft 284kts
28-Feb-20 14:47 40.158234 -104.470142 268 12354ft 282kts
28-Feb-20 14:48 40.151521 -104.572377 268 10856ft 283kts
28-Feb-20 14:49 40.137428 -104.670966 233 9868ft 280kts
28-Feb-20 14:50 40.065820 -104.686361 181 9054ft 259kts
28-Feb-20 14:51 40.006158 -104.671440 135 8262ft 193kts
28-Feb-20 14:51 39.970852 -104.658675 181 7609ft 136kts
28-Feb-20 14:52 39.935292 -104.659240 180 6920ft 124kts
28-Feb-20 14:54 39.895438 -104.659731 180 6144ft 121kts
28-Feb-20 14:54 39.868688 -104.660048 180 5627ft 108kts
28-Feb-20 14:55 39.847331 -104.660278 179 5438ft 44kts
28-Feb-20 14:57 39.840300 -104.661747 220 5438ft 6kts
28-Feb-20 14:57 39.839843 -104.665208 85 5438ft 0kts
28-Feb-20 14:58 39.839843 -104.665209 85 5438ft 0kts
28-Feb-20 14:59 39.839843 -104.665209 85 5438ft 0kts
28-Feb-20 15:00 39.839843 -104.665209 85 5438ft 0kts

Navigation Log

Ident Type
Flight plan parsing failed, navigation log unavailable